createdAt,value
2022-09-26T00:01:43.687Z,11.83
2022-09-26T00:04:22.341Z,10.23
2022-09-26T00:06:51.936Z,10.80
2022-09-26T00:09:20.143Z,10.77
2022-09-26T00:11:48.519Z,10.57
2022-09-26T00:14:20.223Z,10.63
2022-09-26T00:16:50.117Z,11.07
2022-09-26T00:19:18.890Z,10.47
2022-09-26T00:21:46.947Z,9.43
2022-09-26T00:24:15.889Z,9.50
2022-09-26T00:26:44.478Z,9.17
2022-09-26T00:29:14.755Z,8.70
2022-09-26T00:31:47.419Z,9.93
2022-09-26T00:34:20.090Z,9.10
2022-09-26T00:36:48.197Z,9.77
2022-09-26T00:39:17.400Z,9.57
2022-09-26T00:41:46.422Z,9.10
2022-09-26T00:44:43.214Z,9.00
2022-09-26T00:47:36.422Z,9.30
2022-09-26T00:50:16.700Z,9.20
2022-09-26T00:52:53.806Z,10.00
2022-09-26T00:55:30.129Z,9.40
2022-09-26T00:58:05.444Z,9.83
2022-09-26T01:00:34.326Z,9.50
2022-09-26T01:03:03.218Z,9.23
2022-09-26T01:05:34.957Z,9.93
2022-09-26T01:08:05.149Z,9.50
2022-09-26T01:10:35.281Z,9.60
2022-09-26T01:13:04.196Z,9.93
2022-09-26T01:15:32.159Z,9.27
2022-09-26T01:18:00.239Z,9.87
2022-09-26T01:20:39.405Z,10.53
2022-09-26T01:23:53.102Z,9.67
2022-09-26T01:26:52.936Z,9.37
2022-09-26T01:30:01.654Z,10.23
2022-09-26T01:32:52.710Z,10.10
2022-09-26T01:35:45.764Z,10.50
2022-09-26T01:38:26.700Z,9.20
2022-09-26T01:41:12.678Z,9.77
2022-09-26T01:43:52.865Z,10.47
2022-09-26T01:46:30.908Z,9.87
2022-09-26T01:49:13.891Z,10.23
2022-09-26T01:51:51.355Z,9.90
2022-09-26T01:54:25.661Z,10.00
2022-09-26T01:56:58.732Z,10.37
2022-09-26T01:59:33.229Z,10.33
2022-09-26T02:02:09.283Z,10.57
2022-09-26T02:04:45.471Z,9.53
2022-09-26T02:07:19.675Z,9.13
2022-09-26T02:09:53.799Z,10.17
2022-09-26T02:12:32.802Z,9.90
2022-09-26T02:15:05.741Z,11.47
2022-09-26T02:17:39.282Z,11.00
2022-09-26T02:20:17.182Z,10.00
2022-09-26T02:22:45.874Z,10.53
2022-09-26T02:25:14.002Z,9.50
2022-09-26T02:27:41.955Z,11.10
2022-09-26T02:30:12.167Z,10.33
2022-09-26T02:32:40.408Z,10.10
2022-09-26T02:35:35.622Z,10.53
2022-09-26T02:38:05.576Z,10.23
2022-09-26T02:41:01.137Z,11.30
2022-09-26T02:44:13.535Z,11.33
2022-09-26T02:47:10.082Z,10.87
2022-09-26T02:50:08.868Z,10.37
2022-09-26T02:52:57.323Z,10.27
2022-09-26T02:55:38.284Z,11.80
2022-09-26T02:58:19.973Z,12.77
2022-09-26T03:01:02.464Z,12.97
2022-09-26T03:03:39.023Z,12.90
2022-09-26T03:06:13.110Z,12.90
2022-09-26T03:08:48.403Z,11.87
2022-09-26T03:11:23.749Z,12.67
2022-09-26T03:13:56.763Z,13.00
2022-09-26T03:16:29.630Z,11.67
2022-09-26T03:19:07.077Z,11.13
2022-09-26T03:21:37.160Z,11.27
2022-09-26T03:24:07.075Z,11.57
2022-09-26T03:26:37.137Z,11.07
2022-09-26T03:29:06.147Z,11.27
2022-09-26T03:31:34.664Z,11.10
2022-09-26T03:34:03.141Z,10.53
2022-09-26T03:36:32.163Z,10.18
2022-09-26T03:39:00.478Z,10.73
2022-09-26T03:41:29.832Z,9.70
2022-09-26T03:43:58.394Z,9.57
2022-09-26T03:46:26.515Z,10.40
2022-09-26T03:48:54.446Z,10.77
2022-09-26T03:51:22.909Z,10.05
2022-09-26T03:53:51.001Z,10.37
2022-09-26T03:56:21.727Z,10.47
2022-09-26T03:58:51.102Z,10.00
2022-09-26T04:01:22.705Z,9.67
2022-09-26T04:03:51.749Z,10.20
2022-09-26T04:06:21.234Z,9.30
2022-09-26T04:08:52.652Z,9.63
2022-09-26T04:11:24.754Z,9.57
2022-09-26T04:13:54.692Z,9.43
2022-09-26T04:16:24.376Z,9.90
2022-09-26T04:18:57.591Z,9.40
2022-09-26T04:21:27.240Z,10.00
2022-09-26T04:23:55.751Z,9.87
2022-09-26T04:26:24.923Z,10.07
2022-09-26T04:28:59.076Z,10.10
2022-09-26T04:31:28.590Z,9.77
2022-09-26T04:33:56.902Z,9.43
2022-09-26T04:36:25.120Z,9.77
2022-09-26T04:38:53.195Z,9.70
2022-09-26T04:41:23.125Z,8.80
2022-09-26T04:43:51.344Z,9.90
2022-09-26T04:46:30.189Z,9.33
2022-09-26T04:49:02.364Z,10.57
2022-09-26T04:51:32.594Z,10.93
2022-09-26T04:54:00.825Z,9.73
2022-09-26T04:56:31.602Z,10.57
2022-09-26T04:59:00.776Z,10.33
2022-09-26T05:01:30.268Z,11.10
2022-09-26T05:03:58.506Z,11.23
2022-09-26T05:06:26.618Z,11.03
2022-09-26T05:08:54.980Z,11.70
2022-09-26T05:11:22.938Z,11.77
2022-09-26T05:13:53.848Z,12.40
2022-09-26T05:16:22.696Z,12.23
2022-09-26T05:18:53.616Z,13.10
2022-09-26T05:21:21.704Z,10.63
2022-09-26T05:24:07.194Z,12.13
2022-09-26T05:26:43.579Z,10.80
2022-09-26T05:29:12.420Z,11.10
2022-09-26T05:31:41.077Z,10.50
2022-09-26T05:34:18.533Z,11.03
2022-09-26T05:36:48.236Z,10.07
2022-09-26T05:39:36.788Z,10.00
2022-09-26T05:42:09.217Z,9.63
2022-09-26T05:44:39.745Z,9.87
2022-09-26T05:47:08.549Z,10.67
2022-09-26T05:49:38.301Z,10.57
2022-09-26T05:52:06.469Z,10.27
2022-09-26T05:54:34.485Z,9.87
2022-09-26T05:57:02.430Z,8.90
2022-09-26T05:59:32.709Z,9.60
2022-09-26T06:02:00.780Z,9.57
2022-09-26T06:04:29.328Z,9.93
2022-09-26T06:06:59.242Z,9.80
2022-09-26T06:09:27.180Z,8.63
2022-09-26T06:11:55.122Z,8.63
2022-09-26T06:14:26.438Z,7.67
2022-09-26T06:16:54.453Z,8.27
2022-09-26T06:19:23.315Z,7.17
2022-09-26T06:21:51.976Z,6.30
2022-09-26T06:24:21.330Z,6.23
2022-09-26T06:26:49.450Z,5.83
2022-09-26T06:29:17.423Z,5.60
2022-09-26T06:31:46.202Z,5.23
2022-09-26T06:34:15.535Z,5.20
2022-09-26T06:36:44.116Z,5.20
2022-09-26T06:39:12.111Z,5.13
2022-09-26T06:41:41.615Z,4.70
2022-09-26T06:44:09.626Z,4.67
2022-09-26T06:46:37.696Z,4.40
2022-09-26T06:49:06.701Z,4.50
2022-09-26T06:51:34.758Z,3.97
2022-09-26T06:54:03.825Z,4.33
2022-09-26T06:56:31.840Z,4.17
2022-09-26T06:59:02.392Z,4.03
2022-09-26T07:01:30.595Z,4.00
2022-09-26T07:03:59.033Z,4.13
2022-09-26T07:06:27.142Z,3.67
2022-09-26T07:09:03.169Z,3.33
2022-09-26T07:11:46.286Z,3.70
2022-09-26T07:14:22.709Z,3.40
2022-09-26T07:16:51.925Z,3.00
2022-09-26T07:19:20.164Z,3.00
2022-09-26T07:21:49.060Z,3.37
2022-09-26T07:24:17.119Z,2.90
2022-09-26T07:26:45.334Z,2.70
2022-09-26T07:29:13.514Z,3.77
2022-09-26T07:31:42.995Z,2.30
2022-09-26T07:34:15.872Z,3.00
2022-09-26T07:36:47.398Z,3.13
2022-09-26T07:39:15.637Z,2.70
2022-09-26T07:41:46.587Z,2.63
2022-09-26T07:47:22.388Z,2.70
2022-09-26T07:50:08.151Z,3.00
2022-09-26T07:52:36.184Z,2.60
2022-09-26T07:55:04.986Z,2.97
2022-09-26T07:57:34.209Z,2.47
2022-09-26T08:00:03.330Z,2.47
2022-09-26T08:02:34.526Z,2.28
2022-09-26T08:05:04.853Z,2.25
2022-09-26T08:07:35.371Z,2.20
2022-09-26T08:10:05.513Z,2.20
2022-09-26T08:12:37.138Z,1.80
2022-09-26T08:15:06.429Z,2.03
2022-09-26T08:17:36.334Z,2.25
2022-09-26T08:20:05.529Z,2.20
2022-09-26T08:22:33.944Z,1.92
2022-09-26T08:25:01.930Z,2.17
2022-09-26T08:27:33.999Z,2.20
2022-09-26T08:30:04.217Z,1.98
2022-09-26T08:32:33.459Z,1.92
2022-09-26T08:35:02.824Z,2.08
2022-09-26T08:37:31.128Z,1.80
2022-09-26T08:40:00.703Z,1.70
2022-09-26T08:42:43.930Z,1.92
2022-09-26T08:45:52.782Z,1.83
2022-09-26T08:48:40.593Z,1.30
2022-09-26T08:51:28.239Z,1.48
2022-09-26T08:54:05.598Z,1.60
2022-09-26T08:56:40.196Z,1.42
2022-09-26T08:59:23.804Z,1.55
2022-09-26T09:01:57.679Z,1.90
2022-09-26T09:04:41.059Z,1.42
2022-09-26T09:07:22.610Z,1.40
2022-09-26T09:09:54.885Z,1.38
2022-09-26T09:12:38.156Z,1.13
2022-09-26T09:15:33.269Z,1.40
2022-09-26T09:18:21.389Z,1.52
2022-09-26T09:21:02.657Z,1.20
2022-09-26T09:23:56.843Z,1.23
2022-09-26T09:29:50.515Z,1.60
2022-09-26T09:32:24.815Z,1.50
2022-09-26T09:34:54.262Z,1.90
2022-09-26T09:37:26.903Z,1.80
2022-09-26T09:39:57.609Z,1.80
2022-09-26T09:42:37.372Z,2.40
2022-09-26T09:45:15.259Z,1.90
2022-09-26T09:47:43.548Z,1.60
2022-09-26T09:50:16.906Z,2.30
2022-09-26T09:53:05.731Z,2.00
2022-09-26T09:55:47.968Z,2.25
2022-09-26T09:58:39.266Z,2.15
2022-09-26T10:01:18.764Z,2.28
2022-09-26T10:04:01.291Z,2.20
2022-09-26T10:06:44.651Z,2.40
2022-09-26T10:09:38.370Z,2.03
2022-09-26T10:12:16.737Z,1.75
2022-09-26T10:14:52.953Z,1.90
2022-09-26T10:17:23.736Z,1.63
2022-09-26T10:19:52.509Z,1.75
2022-09-26T10:22:30.097Z,1.80
2022-09-26T10:25:05.813Z,1.42
2022-09-26T10:27:39.301Z,1.95
2022-09-26T10:30:26.805Z,1.88
2022-09-26T10:32:59.720Z,1.70
2022-09-26T10:35:41.136Z,2.08
2022-09-26T10:38:22.181Z,2.05
2022-09-26T10:40:55.171Z,1.50
2022-09-26T10:43:31.790Z,1.70
2022-09-26T10:46:12.921Z,1.33
2022-09-26T10:48:48.794Z,1.40
2022-09-26T10:51:28.695Z,1.80
2022-09-26T10:54:04.798Z,1.65
2022-09-26T10:56:39.889Z,2.03
2022-09-26T10:59:14.737Z,1.90
2022-09-26T11:01:47.451Z,4.38
2022-09-26T11:04:34.616Z,1.40
2022-09-26T11:07:02.938Z,1.70
2022-09-26T11:09:32.036Z,1.65
2022-09-26T11:12:00.268Z,1.50
2022-09-26T11:14:30.019Z,2.10
2022-09-26T11:16:59.606Z,1.45
2022-09-26T11:19:44.528Z,1.80
2022-09-26T11:22:26.038Z,1.80
2022-09-26T11:30:56.534Z,1.55
2022-09-26T11:33:25.391Z,1.60
2022-09-26T11:36:14.780Z,1.40
2022-09-26T11:38:48.600Z,1.40
2022-09-26T11:41:57.397Z,1.35
2022-09-26T11:44:48.180Z,1.60
2022-09-26T11:47:51.721Z,1.52
2022-09-26T11:50:40.666Z,1.48
2022-09-26T11:53:43.011Z,1.58
2022-09-26T11:56:55.107Z,1.50
2022-09-26T11:59:50.872Z,1.70
2022-09-26T12:02:50.042Z,1.73
2022-09-26T12:05:30.201Z,1.52
2022-09-26T12:08:21.584Z,1.58
2022-09-26T12:11:01.560Z,1.40
2022-09-26T12:13:47.133Z,1.52
2022-09-26T12:16:24.894Z,1.40
2022-09-26T12:19:06.237Z,1.50
2022-09-26T12:22:10.750Z,1.50
2022-09-26T12:24:53.016Z,1.70
2022-09-26T12:27:33.637Z,1.38
2022-09-26T12:30:10.561Z,1.08
2022-09-26T12:33:04.276Z,1.55
2022-09-26T12:35:52.338Z,1.35
2022-09-26T12:38:45.948Z,1.40
2022-09-26T12:41:41.479Z,1.20
2022-09-26T12:44:52.980Z,0.98
2022-09-26T12:47:50.855Z,1.08
2022-09-26T12:50:36.372Z,1.38
2022-09-26T12:53:41.841Z,1.30
2022-09-26T12:56:15.393Z,1.40
2022-09-26T12:59:13.137Z,1.40
2022-09-26T13:02:20.065Z,1.55
2022-09-26T13:05:22.587Z,1.23
2022-09-26T13:08:08.305Z,1.23
2022-09-26T13:10:58.954Z,1.50
2022-09-26T13:14:08.896Z,1.65
2022-09-26T13:16:56.060Z,1.30
2022-09-26T13:19:30.926Z,1.90
2022-09-26T13:22:03.705Z,1.63
2022-09-26T13:24:57.720Z,1.60
2022-09-26T13:27:36.236Z,1.70
2022-09-26T13:30:13.069Z,1.40
2022-09-26T13:32:56.993Z,1.48
2022-09-26T13:35:27.965Z,1.70
2022-09-26T13:38:20.377Z,1.70
2022-09-26T13:40:58.342Z,1.35
2022-09-26T13:43:49.020Z,1.60
2022-09-26T13:46:34.398Z,1.70
2022-09-26T13:49:27.872Z,1.60
2022-09-26T13:52:19.664Z,1.50
2022-09-26T13:55:00.425Z,1.75
2022-09-26T13:57:38.920Z,1.80
2022-09-26T14:00:48.708Z,1.55
2022-09-26T14:03:44.519Z,1.52
2022-09-26T14:06:33.405Z,1.58
2022-09-26T14:09:25.768Z,1.50
2022-09-26T14:12:53.541Z,1.50
2022-09-26T14:15:26.980Z,1.55
2022-09-26T14:18:16.358Z,1.50
2022-09-26T14:21:07.590Z,1.50
2022-09-26T14:23:43.113Z,1.35
2022-09-26T14:26:15.120Z,1.60
2022-09-26T14:28:52.887Z,1.73
2022-09-26T14:31:40.375Z,1.50
2022-09-26T14:34:23.470Z,1.60
2022-09-26T14:36:54.029Z,1.50
2022-09-26T14:39:33.458Z,1.70
2022-09-26T14:42:12.093Z,1.60
2022-09-26T14:44:49.647Z,1.60
2022-09-26T14:47:19.746Z,1.70
2022-09-26T14:50:00.346Z,1.65
2022-09-26T14:52:29.388Z,1.70
2022-09-26T14:55:02.058Z,1.70
2022-09-26T14:57:35.073Z,1.63
2022-09-26T15:00:35.832Z,1.60
2022-09-26T15:03:14.039Z,1.60
2022-09-26T15:05:42.972Z,1.50
2022-09-26T15:08:26.140Z,1.70
2022-09-26T15:10:58.342Z,1.40
2022-09-26T15:13:39.062Z,1.63
2022-09-26T15:16:24.799Z,1.90
2022-09-26T15:19:01.127Z,1.40
2022-09-26T15:21:37.733Z,1.50
2022-09-26T15:24:27.188Z,1.50
2022-09-26T15:26:59.408Z,1.63
2022-09-26T15:29:28.535Z,1.50
2022-09-26T15:31:57.660Z,1.52
2022-09-26T15:34:34.787Z,1.80
2022-09-26T15:37:17.033Z,1.40
2022-09-26T15:39:45.235Z,1.48
2022-09-26T15:42:45.127Z,1.40
2022-09-26T15:45:33.081Z,1.63
2022-09-26T15:48:06.792Z,1.30
2022-09-26T15:50:47.587Z,1.20
2022-09-26T15:53:25.470Z,1.70
2022-09-26T15:55:59.034Z,1.60
2022-09-26T15:58:36.246Z,1.33
2022-09-26T16:01:05.848Z,1.40
2022-09-26T16:03:55.008Z,1.77
2022-09-26T16:06:30.428Z,1.40
2022-09-26T16:09:09.435Z,1.50
2022-09-26T16:11:47.555Z,1.30
2022-09-26T16:14:30.087Z,1.27
2022-09-26T16:17:11.990Z,1.60
2022-09-26T16:19:47.514Z,1.30
2022-09-26T16:22:36.632Z,1.50
2022-09-26T16:25:35.414Z,1.35
2022-09-26T16:28:44.662Z,1.50
2022-09-26T16:31:39.449Z,1.42
2022-09-26T16:34:22.228Z,1.40
2022-09-26T16:36:51.914Z,1.77
2022-09-26T16:39:25.067Z,1.67
2022-09-26T16:42:02.782Z,1.30
2022-09-26T16:44:36.279Z,1.48
2022-09-26T16:47:09.030Z,2.10
2022-09-26T16:49:47.121Z,1.38
2022-09-26T16:52:28.590Z,1.52
2022-09-26T16:55:00.458Z,1.50
2022-09-26T16:57:33.222Z,1.50
2022-09-26T17:00:23.238Z,1.50
2022-09-26T17:02:51.477Z,1.58
2022-09-26T17:05:22.130Z,1.30
2022-09-26T17:07:51.051Z,2.20
2022-09-26T17:10:26.001Z,1.85
2022-09-26T17:12:54.757Z,1.70
2022-09-26T17:15:29.993Z,1.60
2022-09-26T17:18:01.085Z,1.20
2022-09-26T17:20:30.014Z,1.67
2022-09-26T17:23:04.689Z,1.40
2022-09-26T17:25:52.978Z,1.07
2022-09-26T17:28:32.266Z,1.67
2022-09-26T17:31:06.239Z,1.50
2022-09-26T17:33:39.213Z,1.80
2022-09-26T17:36:10.837Z,1.40
2022-09-26T17:38:41.189Z,1.20
2022-09-26T17:41:12.433Z,1.40
2022-09-26T17:43:40.592Z,1.30
2022-09-26T17:46:15.567Z,1.40
2022-09-26T17:48:45.134Z,1.40
2022-09-26T17:51:14.071Z,1.50
2022-09-26T17:53:50.438Z,1.30
2022-09-26T17:56:21.304Z,1.33
2022-09-26T17:58:51.855Z,1.43
2022-09-26T18:01:25.394Z,1.30
2022-09-26T18:04:00.932Z,1.30
2022-09-26T18:06:32.728Z,1.20
2022-09-26T18:09:05.682Z,1.20
2022-09-26T18:11:37.233Z,1.40
2022-09-26T18:14:11.297Z,1.30
2022-09-26T18:16:42.189Z,1.30
2022-09-26T18:19:10.852Z,1.20
2022-09-26T18:21:40.062Z,1.40
2022-09-26T18:24:19.687Z,1.30
2022-09-26T18:26:54.950Z,1.38
2022-09-26T18:29:30.886Z,1.37
2022-09-26T18:32:01.059Z,1.40
2022-09-26T18:34:29.179Z,1.50
2022-09-26T18:37:00.117Z,1.40
2022-09-26T18:39:28.808Z,1.40
2022-09-26T18:42:03.558Z,1.38
2022-09-26T18:44:35.023Z,1.63
2022-09-26T18:47:05.839Z,1.80
2022-09-26T18:49:38.019Z,1.60
2022-09-26T18:52:08.634Z,1.70
2022-09-26T18:54:37.144Z,1.43
2022-09-26T18:57:23.970Z,1.70
2022-09-26T18:59:52.056Z,1.80
2022-09-26T19:02:25.873Z,1.60
2022-09-26T19:04:58.802Z,1.75
2022-09-26T19:07:27.224Z,1.90
2022-09-26T19:09:55.347Z,2.00
2022-09-26T19:12:24.793Z,2.22
2022-09-26T19:14:52.836Z,2.00
2022-09-26T19:17:20.982Z,2.00
2022-09-26T19:19:49.142Z,2.20
2022-09-26T19:22:18.613Z,1.70
2022-09-26T19:24:51.606Z,1.90
2022-09-26T19:27:27.753Z,1.70
2022-09-26T19:30:01.739Z,1.80
2022-09-26T19:32:35.037Z,1.70
2022-09-26T19:35:08.056Z,1.88
2022-09-26T19:37:36.144Z,1.80
2022-09-26T19:40:13.496Z,1.58
2022-09-26T19:42:43.275Z,2.20
2022-09-26T19:45:13.192Z,1.70
2022-09-26T19:47:47.099Z,1.80
2022-09-26T19:50:18.979Z,2.33
2022-09-26T19:52:47.550Z,1.90
2022-09-26T19:55:18.901Z,1.87
2022-09-26T19:57:48.328Z,2.00
2022-09-26T20:00:19.181Z,1.90
2022-09-26T20:02:51.262Z,1.67
2022-09-26T20:05:23.071Z,1.73
2022-09-26T20:07:51.343Z,1.87
2022-09-26T20:10:25.192Z,1.80
2022-09-26T20:12:54.822Z,1.83
2022-09-26T20:15:22.945Z,2.00
2022-09-26T20:17:53.798Z,1.70
2022-09-26T20:20:25.394Z,1.90
2022-09-26T20:22:56.445Z,1.90
2022-09-26T20:25:28.894Z,1.70
2022-09-26T20:27:59.606Z,1.77
2022-09-26T20:30:45.904Z,1.83
2022-09-26T20:33:14.645Z,1.77
2022-09-26T20:35:47.430Z,1.90
2022-09-26T20:38:25.196Z,1.63
2022-09-26T20:41:10.570Z,1.40
2022-09-26T20:43:48.857Z,1.60
2022-09-26T20:46:20.432Z,1.47
2022-09-26T20:48:50.412Z,2.23
2022-09-26T20:51:24.534Z,1.60
2022-09-26T20:53:53.081Z,1.58
2022-09-26T20:56:21.924Z,1.40
2022-09-26T20:58:51.530Z,1.43
2022-09-26T21:01:22.325Z,1.38
2022-09-26T21:03:55.014Z,1.97
2022-09-26T21:06:28.694Z,1.40
2022-09-26T21:08:57.405Z,1.50
2022-09-26T21:11:25.836Z,1.40
2022-09-26T21:13:55.210Z,1.27
2022-09-26T21:16:23.612Z,1.35
2022-09-26T21:18:53.911Z,1.45
2022-09-26T21:21:26.739Z,1.23
2022-09-26T21:23:56.332Z,1.23
2022-09-26T21:26:27.362Z,1.20
2022-09-26T21:28:57.460Z,1.10
2022-09-26T21:31:29.526Z,1.23
2022-09-26T21:33:59.469Z,1.00
2022-09-26T21:36:35.194Z,1.00
2022-09-26T21:39:04.172Z,1.10
2022-09-26T21:41:32.444Z,1.30
2022-09-26T21:44:06.992Z,1.30
2022-09-26T21:46:35.170Z,1.10
2022-09-26T21:49:03.297Z,1.50
2022-09-26T21:51:32.160Z,1.30
2022-09-26T21:54:07.090Z,1.20
2022-09-26T21:56:48.702Z,1.20
2022-09-26T21:59:20.688Z,1.10
2022-09-26T22:01:48.909Z,1.20
2022-09-26T22:04:18.911Z,1.30
2022-09-26T22:06:46.978Z,1.03
2022-09-26T22:09:15.680Z,1.10
2022-09-26T22:11:43.904Z,1.30
2022-09-26T22:14:12.112Z,1.07
2022-09-26T22:16:41.803Z,1.33
2022-09-26T22:19:10.209Z,1.20
2022-09-26T22:21:38.342Z,1.40
2022-09-26T22:24:06.670Z,1.35
2022-09-26T22:26:34.694Z,1.40
2022-09-26T22:29:02.753Z,1.40
2022-09-26T22:31:30.842Z,1.27
2022-09-26T22:34:01.135Z,1.33
2022-09-26T22:36:29.373Z,1.30
2022-09-26T22:38:57.418Z,1.47
2022-09-26T22:41:25.495Z,1.30
2022-09-26T22:43:54.140Z,1.50
2022-09-26T22:46:22.204Z,1.30
2022-09-26T22:48:50.519Z,1.10
2022-09-26T22:51:20.009Z,1.20
2022-09-26T22:53:48.072Z,1.30
2022-09-26T22:56:18.074Z,1.23
2022-09-26T22:58:49.708Z,1.23
2022-09-26T23:01:22.276Z,1.30
2022-09-26T23:03:51.927Z,1.23
2022-09-26T23:06:22.418Z,1.27
2022-09-26T23:08:51.052Z,1.13
2022-09-26T23:11:19.572Z,1.30
2022-09-26T23:13:50.674Z,1.33
2022-09-26T23:16:21.274Z,1.50
2022-09-26T23:18:51.504Z,1.60
2022-09-26T23:21:23.502Z,1.20
2022-09-26T23:23:56.195Z,1.40
2022-09-26T23:26:26.677Z,1.10
2022-09-26T23:28:57.299Z,1.40
2022-09-26T23:31:26.849Z,1.40
2022-09-26T23:33:56.311Z,1.47
2022-09-26T23:36:26.080Z,1.40
2022-09-26T23:38:54.442Z,1.40
2022-09-26T23:41:22.484Z,1.50
2022-09-26T23:43:50.750Z,1.23
2022-09-26T23:46:19.257Z,1.27
2022-09-26T23:48:47.444Z,1.60
2022-09-26T23:51:15.533Z,1.47
2022-09-26T23:53:45.051Z,1.30
2022-09-26T23:56:15.080Z,1.60
2022-09-26T23:58:43.665Z,1.43
